createdAt,value
2018-10-17T00:01:36.922Z,75.01
2018-10-17T00:04:06.690Z,74.86
2018-10-17T00:06:35.660Z,74.46
2018-10-17T00:09:06.588Z,74.41
2018-10-17T00:11:35.903Z,74.68
2018-10-17T00:14:04.918Z,74.45
2018-10-17T00:16:33.691Z,74.27
2018-10-17T00:19:02.710Z,74.48
2018-10-17T00:21:32.282Z,74.10
2018-10-17T00:24:01.171Z,73.82
2018-10-17T00:26:30.282Z,73.81
2018-10-17T00:28:59.324Z,74.34
2018-10-17T00:31:28.884Z,75.35
2018-10-17T00:33:58.088Z,75.75
2018-10-17T00:36:27.177Z,75.65
2018-10-17T00:38:56.164Z,75.79
2018-10-17T00:41:25.042Z,76.00
2018-10-17T00:43:53.940Z,76.49
2018-10-17T00:46:22.818Z,76.18
2018-10-17T00:48:51.900Z,75.86
2018-10-17T00:51:20.931Z,76.79
2018-10-17T00:53:49.710Z,76.18
2018-10-17T00:56:18.898Z,76.91
2018-10-17T00:58:58.892Z,76.79
2018-10-17T01:01:28.535Z,76.40
2018-10-17T01:03:57.461Z,76.44
2018-10-17T01:06:26.535Z,76.38
2018-10-17T01:08:55.883Z,76.58
2018-10-17T01:11:25.662Z,77.24
2018-10-17T01:13:54.717Z,76.05
2018-10-17T01:16:24.202Z,75.56
2018-10-17T01:18:53.108Z,74.44
2018-10-17T01:21:22.237Z,73.21
2018-10-17T01:23:51.298Z,73.22
2018-10-17T01:26:20.513Z,72.90
2018-10-17T01:28:49.652Z,72.89
2018-10-17T01:31:18.758Z,72.18
2018-10-17T01:33:47.938Z,72.47
2018-10-17T01:36:17.054Z,73.34
2018-10-17T01:38:46.360Z,73.62
2018-10-17T01:41:15.216Z,74.30
2018-10-17T01:43:44.090Z,73.05
2018-10-17T01:46:13.227Z,72.72
2018-10-17T01:48:42.278Z,72.47
2018-10-17T01:51:11.405Z,73.01
2018-10-17T01:53:40.598Z,73.79
2018-10-17T01:56:09.514Z,74.16
2018-10-17T01:58:39.039Z,74.70
2018-10-17T02:01:08.239Z,74.94
2018-10-17T02:03:37.311Z,75.52
2018-10-17T02:06:07.964Z,75.90
2018-10-17T02:08:37.045Z,76.23
2018-10-17T02:11:06.011Z,77.10
2018-10-17T02:13:34.956Z,77.16
2018-10-17T02:16:04.259Z,77.35
2018-10-17T02:18:33.396Z,77.44
2018-10-17T02:21:02.449Z,77.62
2018-10-17T02:23:31.658Z,77.59
2018-10-17T02:26:00.540Z,77.75
2018-10-17T02:28:29.403Z,77.35
2018-10-17T02:30:58.773Z,77.69
2018-10-17T02:33:27.628Z,78.11
2018-10-17T02:35:56.609Z,78.68
2018-10-17T02:38:25.928Z,78.50
2018-10-17T02:40:55.120Z,78.19
2018-10-17T02:43:24.437Z,77.98
2018-10-17T02:45:53.641Z,78.47
2018-10-17T02:48:22.624Z,77.62
2018-10-17T02:50:51.482Z,77.13
2018-10-17T02:53:20.662Z,77.33
2018-10-17T02:55:49.498Z,76.86
2018-10-17T02:58:18.531Z,75.11
2018-10-17T03:00:47.990Z,74.38
2018-10-17T03:03:16.985Z,74.10
2018-10-17T03:05:46.310Z,74.29
2018-10-17T03:08:16.114Z,74.22
2018-10-17T03:10:44.898Z,74.21
2018-10-17T03:13:13.771Z,74.35
2018-10-17T03:15:43.592Z,74.41
2018-10-17T03:18:12.307Z,74.05
2018-10-17T03:20:41.577Z,74.03
2018-10-17T03:23:10.969Z,74.94
2018-10-17T03:25:40.088Z,75.92
2018-10-17T03:28:09.243Z,76.29
2018-10-17T03:30:39.146Z,77.11
2018-10-17T03:33:08.275Z,77.45
2018-10-17T03:35:37.475Z,76.93
2018-10-17T03:38:07.051Z,78.03
2018-10-17T03:40:36.303Z,77.94
2018-10-17T03:43:05.327Z,78.35
2018-10-17T03:45:34.620Z,78.27
2018-10-17T03:48:03.881Z,78.59
2018-10-17T03:50:33.008Z,78.90
2018-10-17T03:53:02.978Z,79.02
2018-10-17T03:55:32.203Z,78.94
2018-10-17T03:58:01.892Z,78.96
2018-10-17T04:00:31.266Z,79.23
2018-10-17T04:03:00.323Z,79.29
2018-10-17T04:05:29.496Z,79.04
2018-10-17T04:07:58.792Z,79.38
2018-10-17T04:10:27.892Z,79.88
2018-10-17T04:12:57.016Z,80.16
2018-10-17T04:15:26.430Z,79.78
2018-10-17T04:17:55.697Z,80.43
2018-10-17T04:20:24.845Z,80.53
2018-10-17T04:22:57.383Z,80.91
2018-10-17T04:25:26.875Z,80.64
2018-10-17T04:27:56.079Z,80.68
2018-10-17T04:30:26.025Z,80.84
2018-10-17T04:32:55.035Z,80.82
2018-10-17T04:35:24.311Z,80.27
2018-10-17T04:37:53.843Z,80.40
2018-10-17T04:40:23.028Z,80.78
2018-10-17T04:42:52.302Z,81.74
2018-10-17T04:45:21.551Z,81.03
2018-10-17T04:47:50.824Z,80.68
2018-10-17T04:50:19.848Z,80.20
2018-10-17T04:52:49.217Z,78.67
2018-10-17T04:55:18.405Z,78.62
2018-10-17T04:57:47.523Z,78.06
2018-10-17T05:00:17.041Z,77.58
2018-10-17T05:02:46.323Z,76.57
2018-10-17T05:05:15.570Z,75.42
2018-10-17T05:07:44.634Z,73.79
2018-10-17T05:10:13.701Z,71.33
2018-10-17T05:12:43.074Z,69.43
2018-10-17T05:15:12.357Z,67.46
2018-10-17T05:17:41.399Z,66.08
2018-10-17T05:20:10.963Z,64.37
2018-10-17T05:22:40.119Z,63.04
2018-10-17T05:25:09.734Z,61.93
2018-10-17T05:27:39.173Z,60.20
2018-10-17T05:30:08.605Z,59.17
2018-10-17T05:32:37.748Z,57.92
2018-10-17T05:35:08.059Z,56.26
2018-10-17T05:37:37.374Z,54.62
2018-10-17T05:40:06.888Z,53.32
2018-10-17T05:42:36.337Z,51.57
2018-10-17T05:45:05.927Z,50.18
2018-10-17T05:47:35.067Z,49.46
2018-10-17T05:50:05.979Z,47.67
2018-10-17T05:52:35.110Z,47.18
2018-10-17T05:55:04.296Z,46.81
2018-10-17T05:57:33.767Z,45.68
2018-10-17T06:00:02.883Z,44.66
2018-10-17T06:02:34.525Z,45.00
2018-10-17T06:05:04.218Z,43.57
2018-10-17T06:07:33.283Z,43.50
2018-10-17T06:10:02.338Z,42.34
2018-10-17T06:12:31.740Z,42.54
2018-10-17T06:15:00.884Z,40.96
2018-10-17T06:17:30.093Z,41.38
2018-10-17T06:19:59.403Z,40.92
2018-10-17T06:22:28.691Z,40.57
2018-10-17T06:24:57.824Z,40.69
2018-10-17T06:27:27.298Z,39.68
2018-10-17T06:29:56.613Z,39.17
2018-10-17T06:32:25.722Z,39.22
2018-10-17T06:34:54.879Z,38.66
2018-10-17T06:37:23.995Z,38.34
2018-10-17T06:39:53.127Z,37.84
2018-10-17T06:42:22.448Z,37.90
2018-10-17T06:44:51.479Z,37.74
2018-10-17T06:47:20.523Z,37.45
2018-10-17T06:49:50.292Z,37.25
2018-10-17T06:52:19.319Z,36.45
2018-10-17T06:54:48.567Z,36.83
2018-10-17T06:57:17.694Z,36.61
2018-10-17T06:59:46.818Z,36.75
2018-10-17T07:02:16.049Z,35.83
2018-10-17T07:04:45.499Z,35.57
2018-10-17T07:07:14.848Z,36.47
2018-10-17T07:09:43.918Z,37.76
2018-10-17T07:12:13.187Z,36.36
2018-10-17T07:14:42.458Z,35.75
2018-10-17T07:17:11.572Z,36.81
2018-10-17T07:19:40.859Z,36.15
2018-10-17T07:22:09.770Z,35.79
2018-10-17T07:24:39.075Z,35.09
2018-10-17T07:27:08.380Z,35.57
2018-10-17T07:29:37.799Z,36.80
2018-10-17T07:32:06.981Z,36.48
2018-10-17T07:34:36.007Z,36.32
2018-10-17T07:37:05.571Z,37.04
2018-10-17T07:39:34.907Z,35.90
2018-10-17T07:42:04.485Z,35.59
2018-10-17T07:44:33.700Z,35.76
2018-10-17T07:47:02.834Z,35.19
2018-10-17T07:49:32.354Z,35.71
2018-10-17T07:52:01.824Z,35.41
2018-10-17T07:54:30.951Z,35.95
2018-10-17T07:57:00.203Z,34.79
2018-10-17T07:59:29.421Z,34.68
2018-10-17T08:01:58.718Z,35.27
2018-10-17T08:04:27.813Z,36.71
2018-10-17T08:06:56.759Z,37.71
2018-10-17T08:09:25.995Z,38.06
2018-10-17T08:11:55.292Z,39.08
2018-10-17T08:14:24.509Z,40.08
2018-10-17T08:16:53.798Z,40.34
2018-10-17T08:19:22.975Z,39.06
2018-10-17T08:21:52.023Z,39.12
2018-10-17T08:24:21.395Z,39.76
2018-10-17T08:26:50.622Z,38.96
2018-10-17T08:29:19.899Z,38.43
2018-10-17T08:31:49.139Z,38.53
2018-10-17T08:34:18.455Z,38.72
2018-10-17T08:36:47.639Z,39.67
2018-10-17T08:39:16.596Z,39.07
2018-10-17T08:41:45.907Z,39.54
2018-10-17T08:44:15.352Z,39.30
2018-10-17T08:46:44.504Z,40.27
2018-10-17T08:49:13.771Z,39.97
2018-10-17T08:51:42.870Z,39.79
2018-10-17T08:54:11.971Z,39.21
2018-10-17T08:56:41.102Z,39.24
2018-10-17T08:59:10.197Z,39.36
2018-10-17T09:01:39.939Z,39.97
2018-10-17T09:04:09.276Z,39.66
2018-10-17T09:06:38.391Z,39.58
2018-10-17T09:09:12.684Z,40.27
2018-10-17T09:11:42.102Z,39.51
2018-10-17T09:14:11.765Z,39.25
2018-10-17T09:16:41.275Z,39.79
2018-10-17T09:19:10.769Z,39.51
2018-10-17T09:21:41.136Z,38.82
2018-10-17T09:24:09.900Z,38.28
2018-10-17T09:26:39.153Z,38.00
2018-10-17T09:29:08.463Z,37.46
2018-10-17T09:31:37.755Z,36.35
2018-10-17T09:34:07.129Z,36.17
2018-10-17T09:36:36.407Z,36.53
2018-10-17T09:39:07.015Z,36.90
2018-10-17T09:41:36.098Z,35.55
2018-10-17T09:44:05.458Z,35.78
2018-10-17T09:46:34.701Z,35.87
2018-10-17T09:49:03.911Z,36.94
2018-10-17T09:51:33.219Z,35.96
2018-10-17T09:54:02.455Z,36.24
2018-10-17T09:56:31.499Z,35.57
2018-10-17T09:59:01.037Z,35.31
2018-10-17T10:02:05.562Z,35.26
2018-10-17T10:04:34.828Z,35.72
2018-10-17T10:07:04.137Z,34.67
2018-10-17T10:09:33.115Z,34.41
2018-10-17T10:12:02.590Z,34.19
2018-10-17T10:14:31.801Z,34.06
2018-10-17T10:17:00.829Z,32.87
2018-10-17T10:19:30.307Z,32.80
2018-10-17T10:21:59.575Z,31.94
2018-10-17T10:24:28.827Z,31.75
2018-10-17T10:26:58.003Z,31.62
2018-10-17T10:29:27.220Z,30.14
2018-10-17T10:31:56.228Z,29.87
2018-10-17T10:34:25.738Z,30.18
2018-10-17T10:36:54.871Z,29.93
2018-10-17T10:39:24.123Z,29.31
2018-10-17T10:41:53.577Z,29.15
2018-10-17T10:44:22.681Z,28.69
2018-10-17T10:46:51.819Z,28.48
2018-10-17T10:49:21.346Z,28.18
2018-10-17T10:51:50.780Z,28.17
2018-10-17T10:54:20.093Z,28.35
2018-10-17T10:56:50.473Z,28.40
2018-10-17T10:59:19.864Z,28.52
2018-10-17T11:01:48.917Z,28.47
2018-10-17T11:04:18.092Z,28.65
2018-10-17T11:06:47.164Z,28.40
2018-10-17T11:09:16.346Z,29.08
2018-10-17T11:11:45.566Z,28.77
2018-10-17T11:14:20.303Z,29.79
2018-10-17T11:16:49.611Z,29.55
2018-10-17T11:19:19.510Z,29.25
2018-10-17T11:21:48.830Z,29.13
2018-10-17T11:24:18.383Z,28.77
2018-10-17T11:26:47.514Z,28.65
2018-10-17T11:29:16.808Z,28.44
2018-10-17T11:31:46.027Z,29.56
2018-10-17T11:34:14.898Z,29.14
2018-10-17T11:36:43.901Z,29.65
2018-10-17T11:39:13.707Z,29.91
2018-10-17T11:41:42.708Z,29.29
2018-10-17T11:44:11.887Z,29.52
2018-10-17T11:46:41.350Z,29.30
2018-10-17T11:49:10.459Z,28.88
2018-10-17T11:51:39.508Z,29.25
2018-10-17T11:54:08.698Z,29.33
2018-10-17T11:56:37.700Z,28.81
2018-10-17T11:59:06.644Z,29.15
2018-10-17T12:01:36.248Z,29.32
2018-10-17T12:04:05.580Z,29.81
2018-10-17T12:06:34.534Z,29.74
2018-10-17T12:09:04.728Z,29.58
2018-10-17T12:11:33.834Z,29.23
2018-10-17T12:14:02.982Z,29.42
2018-10-17T12:16:32.462Z,29.78
2018-10-17T12:19:01.650Z,29.64
2018-10-17T12:21:30.587Z,28.99
2018-10-17T12:24:02.386Z,28.58
2018-10-17T12:26:31.867Z,28.31
2018-10-17T12:29:01.036Z,28.85
2018-10-17T12:31:31.543Z,28.77
2018-10-17T12:34:01.618Z,28.84
2018-10-17T12:36:32.694Z,28.96
2018-10-17T12:39:02.159Z,28.82
2018-10-17T12:41:38.078Z,28.68
2018-10-17T12:44:07.371Z,28.14
2018-10-17T12:46:39.028Z,28.19
2018-10-17T12:52:00.583Z,28.12
2018-10-17T12:54:32.602Z,27.68
2018-10-17T12:57:02.020Z,28.05
2018-10-17T12:59:32.004Z,27.93
2018-10-17T13:02:03.510Z,28.34
2018-10-17T13:04:32.887Z,28.39
2018-10-17T13:07:02.942Z,27.75
2018-10-17T13:09:32.313Z,27.84
2018-10-17T13:12:01.376Z,28.37
2018-10-17T13:14:31.140Z,28.04
2018-10-17T13:17:00.530Z,28.04
2018-10-17T13:19:29.528Z,27.99
2018-10-17T13:21:58.699Z,27.85
2018-10-17T13:24:27.928Z,28.03
2018-10-17T13:26:57.031Z,28.18
2018-10-17T13:29:26.228Z,27.79
2018-10-17T13:31:55.735Z,29.06
2018-10-17T13:34:24.852Z,29.70
2018-10-17T13:36:54.133Z,29.86
2018-10-17T13:39:23.359Z,29.71
2018-10-17T13:41:52.581Z,29.69
2018-10-17T13:44:21.620Z,29.76
2018-10-17T13:46:51.179Z,29.95
2018-10-17T13:49:20.436Z,29.94
2018-10-17T13:51:49.572Z,30.39
2018-10-17T13:54:20.412Z,30.50
2018-10-17T13:56:49.566Z,31.05
2018-10-17T13:59:18.636Z,30.99
2018-10-17T14:01:47.832Z,31.75
2018-10-17T14:04:17.485Z,32.03
2018-10-17T14:06:46.763Z,31.75
2018-10-17T14:09:16.068Z,31.60
2018-10-17T14:11:44.915Z,31.42
2018-10-17T14:14:13.894Z,31.61
2018-10-17T14:16:43.572Z,30.74
2018-10-17T14:19:12.666Z,31.09
2018-10-17T14:21:42.246Z,30.36
2018-10-17T14:24:11.178Z,30.02
2018-10-17T14:26:40.253Z,30.11
2018-10-17T14:29:09.301Z,30.54
2018-10-17T14:31:38.639Z,30.64
2018-10-17T14:34:07.652Z,30.32
2018-10-17T14:36:36.849Z,29.56
2018-10-17T14:39:08.814Z,30.15
2018-10-17T14:41:37.806Z,29.96
2018-10-17T14:44:06.635Z,29.50
2018-10-17T14:46:36.018Z,29.91
2018-10-17T14:49:05.269Z,30.33
2018-10-17T14:51:34.700Z,29.88
2018-10-17T14:54:03.960Z,30.38
2018-10-17T14:56:33.976Z,30.38
2018-10-17T14:59:03.075Z,30.34
2018-10-17T15:01:32.370Z,30.89
2018-10-17T15:04:01.303Z,31.18
2018-10-17T15:06:30.359Z,30.97
2018-10-17T15:08:59.490Z,30.57
2018-10-17T15:11:28.873Z,30.12
2018-10-17T15:13:58.323Z,30.13
2018-10-17T15:16:27.556Z,30.00
2018-10-17T15:18:56.644Z,30.06
2018-10-17T15:21:26.134Z,31.88
2018-10-17T15:23:55.464Z,32.40
2018-10-17T15:26:24.720Z,32.51
2018-10-17T15:28:54.120Z,33.18
2018-10-17T15:31:23.212Z,34.18
2018-10-17T15:33:52.213Z,34.23
2018-10-17T15:36:21.543Z,34.55
2018-10-17T15:38:50.619Z,34.87
2018-10-17T15:41:19.779Z,34.57
2018-10-17T15:43:49.189Z,35.44
2018-10-17T15:46:18.220Z,34.76
2018-10-17T15:48:47.504Z,35.13
2018-10-17T15:51:16.974Z,35.02
2018-10-17T15:53:46.208Z,35.26
2018-10-17T15:56:15.294Z,35.98
2018-10-17T15:58:44.603Z,35.57
2018-10-17T16:01:13.755Z,35.85
2018-10-17T16:03:43.544Z,36.34
2018-10-17T16:06:12.790Z,36.31
2018-10-17T16:08:41.899Z,36.44
2018-10-17T16:11:11.108Z,37.07
2018-10-17T16:13:40.847Z,37.23
2018-10-17T16:16:10.113Z,37.37
2018-10-17T16:18:39.251Z,37.35
2018-10-17T16:21:08.479Z,37.41
2018-10-17T16:23:37.608Z,37.63
2018-10-17T16:26:06.661Z,37.83
2018-10-17T16:28:36.051Z,38.24
2018-10-17T16:31:05.380Z,38.23
2018-10-17T16:33:34.640Z,38.10
2018-10-17T16:36:04.024Z,37.79
2018-10-17T16:38:33.330Z,38.44
2018-10-17T16:41:02.418Z,38.19
2018-10-17T16:43:31.715Z,38.77
2018-10-17T16:46:01.608Z,38.75
2018-10-17T16:48:31.116Z,39.23
2018-10-17T16:51:00.457Z,39.25
2018-10-17T16:53:29.485Z,39.56
2018-10-17T16:55:58.754Z,39.53
2018-10-17T16:58:28.088Z,39.73
2018-10-17T17:00:57.254Z,40.11
2018-10-17T17:03:26.351Z,40.01
2018-10-17T17:05:57.139Z,39.72
2018-10-17T17:08:26.238Z,40.01
2018-10-17T17:10:55.357Z,40.11
2018-10-17T17:13:25.512Z,40.17
2018-10-17T17:15:54.808Z,40.20
2018-10-17T17:18:23.860Z,40.27
2018-10-17T17:20:52.950Z,40.28
2018-10-17T17:23:22.095Z,40.42
2018-10-17T17:25:51.027Z,40.71
2018-10-17T17:28:20.300Z,40.53
2018-10-17T17:30:49.493Z,40.92
2018-10-17T17:33:18.861Z,41.03
2018-10-17T17:35:48.304Z,40.79
2018-10-17T17:38:17.499Z,40.54
2018-10-17T17:40:46.508Z,40.29
2018-10-17T17:43:16.016Z,41.06
2018-10-17T17:45:45.271Z,40.86
2018-10-17T17:48:14.495Z,40.38
2018-10-17T17:50:43.766Z,41.10
2018-10-17T17:53:12.887Z,40.98
2018-10-17T17:55:41.935Z,40.97
2018-10-17T17:58:11.387Z,41.15
2018-10-17T18:00:40.402Z,41.05
2018-10-17T18:03:09.678Z,41.22
2018-10-17T18:05:38.916Z,41.71
2018-10-17T18:08:07.797Z,41.69
2018-10-17T18:10:36.975Z,42.13
2018-10-17T18:13:06.303Z,42.22
2018-10-17T18:15:35.483Z,42.56
2018-10-17T18:18:04.612Z,42.42
2018-10-17T18:20:34.527Z,42.31
2018-10-17T18:23:03.672Z,42.86
2018-10-17T18:25:32.707Z,43.52
2018-10-17T18:28:02.198Z,43.73
2018-10-17T18:30:31.123Z,44.15
2018-10-17T18:33:00.253Z,44.04
2018-10-17T18:35:29.402Z,44.47
2018-10-17T18:37:58.558Z,44.92
2018-10-17T18:40:27.816Z,44.77
2018-10-17T18:42:56.975Z,45.12
2018-10-17T18:45:26.179Z,45.22
2018-10-17T18:47:55.442Z,45.19
2018-10-17T18:50:24.687Z,45.31
2018-10-17T18:52:53.778Z,45.78
2018-10-17T18:55:22.618Z,45.37
2018-10-17T18:57:51.939Z,45.33
2018-10-17T19:00:21.035Z,45.29
2018-10-17T19:02:49.947Z,45.21
2018-10-17T19:05:18.811Z,45.52
2018-10-17T19:07:47.949Z,45.94
2018-10-17T19:10:16.955Z,45.57
2018-10-17T19:12:47.321Z,45.91
2018-10-17T19:15:16.896Z,46.39
2018-10-17T19:17:46.002Z,45.97
2018-10-17T19:20:15.808Z,46.63
2018-10-17T19:22:45.230Z,46.33
2018-10-17T19:25:15.791Z,46.52
2018-10-17T19:27:45.460Z,46.71
2018-10-17T19:30:15.118Z,46.61
2018-10-17T19:32:45.076Z,46.80
2018-10-17T19:35:14.633Z,46.79
2018-10-17T19:37:43.675Z,46.85
2018-10-17T19:40:12.668Z,47.30
2018-10-17T19:42:42.129Z,47.19
2018-10-17T19:45:11.688Z,47.70
2018-10-17T19:47:40.777Z,47.65
2018-10-17T19:50:10.492Z,47.91
2018-10-17T19:52:39.294Z,47.70
2018-10-17T19:55:09.727Z,47.89
2018-10-17T19:57:39.095Z,47.80
2018-10-17T20:00:10.435Z,47.74
2018-10-17T20:02:40.087Z,48.12
2018-10-17T20:05:09.264Z,47.92
2018-10-17T20:07:38.753Z,48.22
2018-10-17T20:10:08.083Z,48.46
2018-10-17T20:12:37.546Z,48.32
2018-10-17T20:15:07.109Z,48.36
2018-10-17T20:17:36.330Z,48.10
2018-10-17T20:20:05.859Z,48.48
2018-10-17T20:22:34.989Z,48.42
2018-10-17T20:25:04.264Z,48.58
2018-10-17T20:27:33.480Z,48.41
2018-10-17T20:30:02.630Z,48.94
2018-10-17T20:32:31.927Z,48.53
2018-10-17T20:35:01.196Z,48.76
2018-10-17T20:37:30.383Z,48.89
2018-10-17T20:39:59.567Z,48.78
2018-10-17T20:42:28.506Z,48.95
2018-10-17T20:44:57.753Z,49.23
2018-10-17T20:47:26.952Z,48.98
2018-10-17T20:49:55.833Z,49.07
2018-10-17T20:52:25.198Z,49.02
2018-10-17T20:54:54.790Z,48.56
2018-10-17T20:57:23.880Z,49.04
2018-10-17T20:59:53.049Z,49.03
2018-10-17T21:02:22.434Z,49.20
2018-10-17T21:04:51.464Z,49.03
2018-10-17T21:07:20.442Z,49.21
2018-10-17T21:09:49.923Z,49.33
2018-10-17T21:12:19.023Z,49.14
2018-10-17T21:14:48.075Z,49.03
2018-10-17T21:17:17.519Z,49.54
2018-10-17T21:19:46.575Z,49.42
2018-10-17T21:22:15.746Z,49.50
2018-10-17T21:24:45.098Z,49.05
2018-10-17T21:27:14.199Z,49.16
2018-10-17T21:29:43.258Z,49.68
2018-10-17T21:32:12.603Z,49.39
2018-10-17T21:34:41.991Z,49.83
2018-10-17T21:37:11.033Z,49.59
2018-10-17T21:39:40.444Z,49.64
2018-10-17T21:42:09.898Z,49.80
2018-10-17T21:44:39.247Z,49.29
2018-10-17T21:47:09.356Z,49.41
2018-10-17T21:49:39.012Z,49.67
2018-10-17T21:52:07.998Z,49.87
2018-10-17T21:54:37.700Z,49.57
2018-10-17T21:57:08.090Z,49.53
2018-10-17T21:59:37.258Z,49.55
2018-10-17T22:02:06.519Z,49.74
2018-10-17T22:07:19.021Z,49.68
2018-10-17T22:09:48.477Z,49.80
2018-10-17T22:12:17.666Z,50.48
2018-10-17T22:14:47.016Z,49.81
2018-10-17T22:17:16.149Z,50.00
2018-10-17T22:19:45.287Z,50.22
2018-10-17T22:22:14.714Z,50.03
2018-10-17T22:24:43.895Z,49.68
2018-10-17T22:27:13.004Z,49.96
2018-10-17T22:29:42.260Z,50.09
2018-10-17T22:32:11.554Z,49.99
2018-10-17T22:34:40.687Z,50.88
2018-10-17T22:37:10.021Z,50.76
2018-10-17T22:39:39.846Z,51.08
2018-10-17T22:42:08.951Z,51.52
2018-10-17T22:44:38.459Z,51.72
2018-10-17T22:47:07.823Z,51.93
2018-10-17T22:49:37.024Z,52.47
2018-10-17T22:52:06.471Z,52.80
2018-10-17T22:54:35.592Z,52.67
2018-10-17T22:57:04.740Z,52.91
2018-10-17T22:59:33.866Z,53.40
2018-10-17T23:02:03.316Z,53.21
2018-10-17T23:04:32.362Z,53.56
2018-10-17T23:07:01.674Z,53.95
2018-10-17T23:09:30.914Z,54.13
2018-10-17T23:11:59.943Z,54.33
2018-10-17T23:14:29.366Z,53.58
2018-10-17T23:16:58.610Z,54.31
2018-10-17T23:19:27.713Z,54.11
2018-10-17T23:21:57.087Z,54.45
2018-10-17T23:24:26.147Z,54.44
2018-10-17T23:26:55.058Z,54.70
2018-10-17T23:29:24.233Z,54.65
2018-10-17T23:31:53.178Z,54.50
2018-10-17T23:34:22.270Z,55.04
2018-10-17T23:36:51.536Z,54.98
2018-10-17T23:39:20.663Z,55.27
2018-10-17T23:41:49.921Z,55.22
2018-10-17T23:44:19.154Z,55.36
2018-10-17T23:46:48.168Z,56.00
2018-10-17T23:49:17.310Z,55.97
2018-10-17T23:51:46.630Z,56.25
2018-10-17T23:54:15.699Z,56.44
2018-10-17T23:56:44.810Z,55.95
2018-10-17T23:59:23.835Z,56.85
